Map

Track Data

SID SEASON NUMBER BASIN SUBBASIN NAME ISO_TIME NATURE LAT LON WMO_WIND WMO_PRES WMO_AGENCY TRACK_TYPE DIST2LAND LANDFALL IFLAG USA_AGENCY USA_ATCF_ID USA_LAT USA_LON USA_RECORD USA_STATUS USA_WIND USA_PRES USA_SSHS USA_R34_NE USA_R34_SE USA_R34_SW USA_R34_NW USA_R50_NE USA_R50_SE USA_R50_SW USA_R50_NW USA_R64_NE USA_R64_SE USA_R64_SW USA_R64_NW USA_POCI USA_ROCI USA_RMW USA_EYE TOKYO_LAT TOKYO_LON TOKYO_GRADE TOKYO_WIND TOKYO_PRES TOKYO_R50_DIR TOKYO_R50_LONG TOKYO_R50_SHORT TOKYO_R30_DIR TOKYO_R30_LONG TOKYO_R30_SHORT TOKYO_LAND CMA_LAT CMA_LON CMA_CAT CMA_WIND CMA_PRES HKO_LAT HKO_LON HKO_CAT HKO_WIND HKO_PRES NEWDELHI_LAT NEWDELHI_LON NEWDELHI_GRADE NEWDELHI_WIND NEWDELHI_PRES NEWDELHI_CI NEWDELHI_DP NEWDELHI_POCI REUNION_LAT REUNION_LON REUNION_TYPE REUNION_WIND REUNION_PRES REUNION_TNUM REUNION_CI REUNION_RMW REUNION_R34_NE REUNION_R34_SE REUNION_R34_SW REUNION_R34_NW REUNION_R50_NE REUNION_R50_SE REUNION_R50_SW REUNION_R50_NW REUNION_R64_NE REUNION_R64_SE REUNION_R64_SW REUNION_R64_NW BOM_LAT BOM_LON BOM_TYPE BOM_WIND BOM_PRES BOM_TNUM BOM_CI BOM_RMW BOM_R34_NE BOM_R34_SE BOM_R34_SW BOM_R34_NW BOM_R50_NE BOM_R50_SE BOM_R50_SW BOM_R50_NW BOM_R64_NE BOM_R64_SE BOM_R64_SW BOM_R64_NW BOM_ROCI BOM_POCI BOM_EYE BOM_POS_METHOD BOM_PRES_METHOD NADI_LAT NADI_LON NADI_CAT NADI_WIND NADI_PRES WELLINGTON_LAT WELLINGTON_LON WELLINGTON_WIND WELLINGTON_PRES DS824_LAT DS824_LON DS824_STAGE DS824_WIND DS824_PRES TD9636_LAT TD9636_LON TD9636_STAGE TD9636_WIND TD9636_PRES TD9635_LAT TD9635_LON TD9635_WIND TD9635_PRES TD9635_ROCI NEUMANN_LAT NEUMANN_LON NEUMANN_CLASS NEUMANN_WIND NEUMANN_PRES MLC_LAT MLC_LON MLC_CLASS MLC_WIND MLC_PRES USA_GUST BOM_GUST BOM_GUST_PER REUNION_GUST REUNION_GUST_PER USA_SEAHGT USA_SEARAD_NE USA_SEARAD_SE USA_SEARAD_SW USA_SEARAD_NW STORM_SPEED STORM_DIR
1936307N09150 1936 61 WP MM NOT_NAMED 1936-11-02 10:00:00 NR 9.30000 150.000 main 1309 1307 __________O___ -1 9.30000 150.000 7 3 275
1936307N09150 1936 61 WP MM NOT_NAMED 1936-11-02 12:00:00 NR 9.30895 149.895 main 1307 1302 __________P___ -1 9.30895 149.895 7 3 275
1936307N09150 1936 61 WP MM NOT_NAMED 1936-11-02 15:00:00 NR 9.32527 149.714 main 1302 1298 __________P___ -1 9.32527 149.714 7 4 276
1936307N09150 1936 61 WP MM NOT_NAMED 1936-11-02 18:00:00 NR 9.34907 149.474 main 1298 1302 __________P___ -1 9.34907 149.474 7 6 276
1936307N09150 1936 61 WP MM NOT_NAMED 1936-11-02 21:00:00 NR 9.38474 149.139 main 1302 1300 __________P___ -1 9.38474 149.139 7 7 276
1936307N09150 1936 61 WP MM NOT_NAMED 1936-11-02 22:00:00 NR 9.40000 149.000 main 1300 1296 __________O___ -1 9.40000 149.000 7 9 276
1936307N09150 1936 61 WP MM NOT_NAMED 1936-11-03 00:00:00 NR 9.43565 148.677 main 1296 1295 __________P___ -1 9.43565 148.677 7 11 276
1936307N09150 1936 61 WP MM NOT_NAMED 1936-11-03 03:00:00 NR 9.49547 148.098 main 1302 1299 __________P___ -1 9.49547 148.098 7 12 275
1936307N09150 1936 61 WP MM NOT_NAMED 1936-11-03 06:00:00 NR 9.55175 147.439 main 1311 1311 __________P___ -1 9.55175 147.439 7 13 274
1936307N09150 1936 61 WP MM NOT_NAMED 1936-11-03 09:00:00 NR 9.59215 146.737 main 1311 1311 __________P___ -1 9.59215 146.737 7 14 273
1936307N09150 1936 61 WP MM NOT_NAMED 1936-11-03 10:00:00 NR 9.60000 146.500 main 1311 1311 __________O___ -1 9.60000 146.500 7 13 271
1936307N09150 1936 61 WP MM NOT_NAMED 1936-11-03 12:00:00 NR 9.60245 146.079 main 1312 1312 __________P___ -1 9.60245 146.079 7 13 269
1936307N09150 1936 61 WP MM NOT_NAMED 1936-11-03 15:00:00 NR 9.58751 145.430 main 1317 1317 __________P___ -1 9.58751 145.430 7 13 268
1936307N09150 1936 61 WP MM NOT_NAMED 1936-11-03 18:00:00 NR 9.55616 144.736 main 1327 1318 __________P___ -1 9.55616 144.736 7 14 267
1936307N09150 1936 61 WP MM NOT_NAMED 1936-11-03 21:00:00 NR 9.51488 143.974 main 1331 1333 __________P___ -1 9.51488 143.974 7 15 267
1936307N09150 1936 61 WP MM NOT_NAMED 1936-11-03 22:00:00 NR 9.50000 143.700 main 1339 1339 __________O___ -1 9.50000 143.700 7 17 266
1936307N09150 1936 61 WP MM NOT_NAMED 1936-11-04 00:00:00 NR 9.45618 143.138 main 1356 1309 __________P___ -1 9.45618 143.138 7 18 265
1936307N09150 1936 61 WP MM NOT_NAMED 1936-11-04 03:00:00 NR 9.38386 142.227 main 1309 1265 __________P___ -1 9.38386 142.227 7 19 266
1936307N09150 1936 61 WP MM NOT_NAMED 1936-11-04 06:00:00 NR 9.32347 141.237 main 1265 1228 __________P___ -1 9.32347 141.237 7 20 268
1936307N09150 1936 61 WP MM NOT_NAMED 1936-11-04 09:00:00 NR 9.29728 140.172 main 1228 1215 __________P___ -1 9.29728 140.172 7 21 269
1936307N09150 1936 61 WP MM NOT_NAMED 1936-11-04 10:00:00 NR 9.30000 139.800 main 1211 1182 __________O___ -1 9.30000 139.800 7 24 271
1936307N09150 1936 61 WP MM NOT_NAMED 1936-11-04 12:00:00 NR 9.32084 138.963 main 1182 1153 __________P___ -1 9.32084 138.963 7 26 272
1936307N09150 1936 61 WP MM NOT_NAMED 1936-11-04 15:00:00 NR 9.38907 137.641 main 1153 1097 __________P___ -1 9.38907 137.641 7 26 274
1936307N09150 1936 61 WP MM NOT_NAMED 1936-11-04 18:00:00 NR 9.49759 136.351 main 1097 969 __________P___ -1 9.49759 136.351 7 24 276
1936307N09150 1936 61 WP MM NOT_NAMED 1936-11-04 21:00:00 NR 9.64340 135.220 main 969 940 __________P___ -1 9.64340 135.220 7 22 278
1936307N09150 1936 61 WP MM NOT_NAMED 1936-11-04 22:00:00 NR 9.70000 134.900 main 940 889 __________O___ -1 9.70000 134.900 7 16 282
1936307N09150 1936 61 WP MM NOT_NAMED 1936-11-05 00:00:00 NR 9.81675 134.415 main 889 843 __________P___ -1 9.81675 134.415 7 13 288
1936307N09150 1936 61 WP MM NOT_NAMED 1936-11-05 03:00:00 NR 10.0252 133.876 main 843 805 __________P___ -1 10.0252 133.876 7 10 296
1936307N09150 1936 61 WP MM NOT_NAMED 1936-11-05 06:00:00 NR 10.2623 133.478 main 807 769 __________P___ -1 10.2623 133.478 7 9 304
1936307N09150 1936 61 WP MM NOT_NAMED 1936-11-05 09:00:00 NR 10.5148 133.125 main 769 761 __________P___ -1 10.5148 133.125 7 9 306
1936307N09150 1936 61 WP MM NOT_NAMED 1936-11-05 10:00:00 NR 10.6000 133.000 main 761 731 __________O___ -1 10.6000 133.000 7 10 299
1936307N09150 1936 61 WP MM NOT_NAMED 1936-11-05 12:00:00 NR 10.7662 132.662 main 734 677 __________P___ -1 10.7662 132.662 7 11 297
1936307N09150 1936 61 WP MM NOT_NAMED 1936-11-05 15:00:00 NR 11.0219 132.148 main 677 634 __________P___ -1 11.0219 132.148 7 11 297
1936307N09150 1936 61 WP MM NOT_NAMED 1936-11-05 18:00:00 NR 11.2771 131.641 main 634 591 __________P___ -1 11.2771 131.641 7 11 297
1936307N09150 1936 61 WP MM NOT_NAMED 1936-11-05 21:00:00 NR 11.5221 131.155 main 591 571 __________P___ -1 11.5221 131.155 7 11 297
1936307N09150 1936 61 WP MM NOT_NAMED 1936-11-05 22:00:00 NR 11.6000 131.000 main 571 540 __________O___ -1 11.6000 131.000 7 10 298
1936307N09150 1936 61 WP MM NOT_NAMED 1936-11-06 00:00:00 NR 11.7496 130.723 main 540 503 __________P___ -1 11.7496 130.723 7 9 299
1936307N09150 1936 61 WP MM NOT_NAMED 1936-11-06 03:00:00 NR 11.9617 130.334 main 503 474 __________P___ -1 11.9617 130.334 7 9 298
1936307N09150 1936 61 WP MM NOT_NAMED 1936-11-06 06:00:00 NR 12.1592 129.951 main 477 428 __________P___ -1 12.1592 129.951 7 9 296
1936307N09150 1936 61 WP MM NOT_NAMED 1936-11-06 09:00:00 NR 12.3422 129.545 main 428 422 __________P___ -1 12.3422 129.545 7 9 294
1936307N09150 1936 61 WP MM NOT_NAMED 1936-11-06 10:00:00 NR 12.4000 129.400 main 422 392 __________O___ -1 12.4000 129.400 7 10 292
1936307N09150 1936 61 WP MM NOT_NAMED 1936-11-06 12:00:00 NR 12.5217 129.092 main 392 341 __________P___ -1 12.5217 129.092 7 10 290
1936307N09150 1936 61 WP MM NOT_NAMED 1936-11-06 15:00:00 NR 12.6919 128.598 main 341 290 __________P___ -1 12.6919 128.598 7 11 288
1936307N09150 1936 61 WP MM NOT_NAMED 1936-11-06 18:00:00 NR 12.8420 128.067 main 290 234 __________P___ -1 12.8420 128.067 7 11 284
1936307N09150 1936 61 WP MM NOT_NAMED 1936-11-06 21:00:00 NR 12.9657 127.498 main 234 215 __________P___ -1 12.9657 127.498 7 11 282
1936307N09150 1936 61 WP MM NOT_NAMED 1936-11-06 22:00:00 NR 13.0000 127.300 main 215 176 __________O___ -1 13.0000 127.300 2 12 279
1936307N09150 1936 61 WP MM NOT_NAMED 1936-11-07 00:00:00 NR 13.0533 126.903 main 182 133 __________P___ -1 13.0533 126.903 2 12 276
1936307N09150 1936 61 WP MM NOT_NAMED 1936-11-07 03:00:00 NR 13.1081 126.276 main 133 79 __________P___ -1 13.1081 126.276 2 13 274
1936307N09150 1936 61 WP MM NOT_NAMED 1936-11-07 06:00:00 NR 13.1467 125.617 main 79 77 __________P___ -1 13.1467 125.617 2 13 273
1936307N09150 1936 61 WP MM NOT_NAMED 1936-11-07 09:00:00 NR 13.1847 124.933 main 77 62 __________P___ -1 13.1847 124.933 2 13 273
1936307N09150 1936 61 WP MM NOT_NAMED 1936-11-07 10:00:00 NR 13.2000 124.700 main 62 24 __________O___ -1 13.2000 124.700 2 14 273
1936307N09150 1936 61 WP MM NOT_NAMED 1936-11-07 12:00:00 NR 13.2234 124.218 main 24 0 __________P___ -1 13.2234 124.218 2 14 273
1936307N09150 1936 61 WP MM NOT_NAMED 1936-11-07 15:00:00 NR 13.2643 123.475 main 0 0 __________P___ -1 13.2643 123.475 2 14 274
1936307N09150 1936 61 WP MM NOT_NAMED 1936-11-07 18:00:00 NR 13.3316 122.735 main 0 0 __________P___ -1 13.3316 122.735 2 14 277
1936307N09150 1936 61 WP MM NOT_NAMED 1936-11-07 21:00:00 NR 13.4470 122.025 main 39 31 __________P___ -1 13.4470 122.025 2 14 280
1936307N09150 1936 61 WP MM NOT_NAMED 1936-11-07 22:00:00 NR 13.5000 121.800 main 39 10 __________O___ -1 13.5000 121.800 2 13 287
1936307N09150 1936 61 WP MM NOT_NAMED 1936-11-08 00:00:00 NR 13.6371 121.372 main 10 0 __________P___ -1 13.6371 121.372 2 13 291
1936307N09150 1936 61 WP MM NOT_NAMED 1936-11-08 03:00:00 NR 13.8938 120.768 main 0 0 __________P___ -1 13.8938 120.768 2 13 296
1936307N09150 1936 61 WP MM NOT_NAMED 1936-11-08 06:00:00 NR 14.1892 120.203 main 39 39 __________P___ -1 14.1892 120.203 2 12 300
1936307N09150 1936 61 WP MM NOT_NAMED 1936-11-08 09:00:00 NR 14.4983 119.671 main 54 58 __________P___ -1 14.4983 119.671 2 12 301
1936307N09150 1936 61 WP MM NOT_NAMED 1936-11-08 10:00:00 NR 14.6000 119.500 main 68 68 __________O___ -1 14.6000 119.500 2 11 302
1936307N09150 1936 61 WP MM NOT_NAMED 1936-11-08 12:00:00 NR 14.7973 119.166 main 96 102 __________P___ -1 14.7973 119.166 2 11 301
1936307N09150 1936 61 WP MM NOT_NAMED 1936-11-08 15:00:00 NR 15.0796 118.683 main 133 133 __________P___ -1 15.0796 118.683 2 11 301
1936307N09150 1936 61 WP MM NOT_NAMED 1936-11-08 18:00:00 NR 15.3499 118.214 main 178 174 __________P___ -1 15.3499 118.214 2 10 301
1936307N09150 1936 61 WP MM NOT_NAMED 1936-11-08 21:00:00 NR 15.6131 117.753 main 208 216 __________P___ -1 15.6131 117.753 2 10 301
1936307N09150 1936 61 WP MM NOT_NAMED 1936-11-08 22:00:00 NR 15.7000 117.600 main 227 __________O___ -1 15.7000 117.600 2 10 300

Digital Typhoon Data and Search

About IBTrACS Database

This database is a web-friendly format of International Best Track Archive for Climate Stewardship (IBTrACS), a global best track data archive curated by NOAA dating back to 1842.

Updated: 2021-10-08